Date,TemperatureHighF,TemperatureAvgF,TemperatureLowF,DewpointHighF,DewpointAvgF,DewpointLowF,HumidityHigh,HumidityAvg,HumidityLow,PressureMaxIn,PressureMinIn,WindSpeedMaxMPH,WindSpeedAvgMPH,GustSpeedMaxMPH,PrecipitationSumIn
2013-8-1,84.6,74.7,67.2,70.7,68.6,66.0,98,83,59,30.03,29.94,4,2,11,0.00
2013-8-3,72.6,72.4,72.1,71.5,71.2,70.9,97,96,96,30.03,30.03,1,0,1,0.47
2013-8-4,81.4,73.9,67.6,71.6,66.2,62.0,97,78,58,30.11,30.01,2,0,7,0.00
2013-8-5,74.7,69.3,66.1,67.7,64.8,61.9,94,86,67,30.07,29.90,3,1,6,0.11
2013-8-6,81.2,75.0,69.5,76.0,72.3,67.4,97,91,79,29.94,29.85,4,1,7,0.00
2013-8-7,83.3,75.5,71.2,77.6,73.3,69.0,98,93,80,29.93,29.84,5,1,12,0.31
2013-8-8,82.6,75.0,69.4,78.2,73.1,68.5,99,94,82,29.97,29.85,11,0,28,0.78
2013-8-9,87.7,76.9,71.4,79.3,73.6,70.8,99,90,71,30.00,29.89,6,1,11,0.24
2013-8-10,81.3,74.6,71.4,75.8,72.6,70.5,98,94,80,30.08,29.98,4,0,8,0.20
2013-8-11,85.5,76.8,70.3,77.1,73.5,69.7,99,90,71,30.10,30.01,3,0,5,0.18
2013-8-12,84.2,74.7,70.8,77.2,73.0,69.9,98,95,78,30.04,29.88,5,0,10,0.30
2013-8-13,82.1,74.3,65.8,73.3,69.6,63.1,98,86,62,30.01,29.89,5,2,10,0.38
2013-8-14,75.0,65.3,56.4,63.2,56.6,53.8,93,75,51,30.11,30.00,3,1,11,0.08
2013-8-15,56.8,55.8,54.2,54.8,53.9,52.8,95,93,91,30.09,30.06,0,0,2,0.00
2013-8-20,84.9,77.2,70.7,75.3,72.3,69.5,97,86,67,30.05,30.00,5,0,5,0.26
2013-8-21,89.7,77.9,67.2,76.1,71.5,66.3,99,83,56,30.11,30.02,7,1,7,0.00
2013-8-24,87.5,81.5,69.6,73.9,71.1,67.5,94,72,58,30.16,30.09,10,1,10,0.00
2013-8-25,86.9,76.3,66.8,75.9,70.8,65.0,96,84,62,30.25,30.15,10,1,10,0.00
2013-8-26,88.2,77.2,68.2,75.9,71.4,66.7,96,83,63,30.23,30.09,10,1,10,0.00
2013-8-27,88.5,77.1,67.8,75.8,70.9,65.4,95,82,63,30.10,30.00,10,1,10,0.00
2013-8-28,91.1,79.2,69.9,75.6,71.1,67.7,95,78,50,30.03,29.96,10,2,10,0.00
2013-8-29,93.3,81.3,71.6,79.2,73.3,69.1,94,78,54,30.00,29.92,9,1,9,0.00
2013-8-30,94.5,82.1,71.1,78.8,73.7,69.9,96,78,49,29.95,29.84,10,1,10,0.00
2013-8-31,94.9,83.1,75.0,78.4,74.9,72.0,93,78,55,29.86,29.74,8,1,8,0.00